Time;durP1;ratioP1;P1;durP2;ratioP2;P2;SDS_P1;SDS_P2;PMS_P1;PMS_P2;Temp;Humidity;BMP_temperature;BMP_pressure;BME280_temperature;BME280_humidity;BME280_pressure;Samples;Min_cycle;Max_cycle;Signal;HPM_P1;HPM_P2
2022/07/19 00:01:34;;;;;;;2.67;0.70;;;;;;;22.59;42.63;99183.16;5089141;28;20238;-72
2022/07/19 00:04:00;;;;;;;1.40;0.55;;;;;;;22.59;42.59;99183.16;5088989;28;20074;-72
2022/07/19 00:06:26;;;;;;;1.25;0.80;;;;;;;22.63;42.38;99179.00;5089043;28;20025;-72
2022/07/19 00:08:51;;;;;;;0.75;0.50;;;;;;;22.63;42.48;99174.47;5089242;28;20045;-72
2022/07/19 00:11:17;;;;;;;1.05;0.60;;;;;;;22.65;42.31;99179.63;5088952;28;20217;-72
2022/07/19 00:13:42;;;;;;;2.00;0.85;;;;;;;22.69;42.24;99176.31;5088848;28;20036;-72
2022/07/19 00:16:08;;;;;;;1.20;0.80;;;;;;;22.71;42.26;99179.63;5088650;28;20028;-71
2022/07/19 00:18:33;;;;;;;1.50;0.85;;;;;;;22.75;42.55;99184.59;5088712;28;20020;-72
2022/07/19 00:20:59;;;;;;;0.95;0.60;;;;;;;22.75;42.04;99176.53;5088732;28;20255;-72
2022/07/19 00:23:24;;;;;;;4.55;0.57;;;;;;;22.75;42.41;99176.53;5088602;28;20091;-72
2022/07/19 00:25:50;;;;;;;0.90;0.63;;;;;;;22.73;42.36;99171.31;5088600;28;20095;-72
2022/07/19 00:28:15;;;;;;;1.40;0.50;;;;;;;22.75;42.05;99180.03;5088536;28;20028;-72
2022/07/19 00:30:41;;;;;;;1.17;0.52;;;;;;;22.75;42.29;99180.03;5088560;28;20218;-73
2022/07/19 00:33:08;;;;;;;2.55;0.80;;;;;;;22.74;42.17;99177.56;5088432;28;20024;-73
2022/07/19 00:35:35;;;;;;;1.15;0.68;;;;;;;22.72;42.38;99180.44;5088335;28;20058;-72
2022/07/19 00:38:09;;;;;;;1.75;0.88;;;;;;;22.71;42.38;99168.03;5088279;28;20094;-72
2022/07/19 00:40:35;;;;;;;1.25;0.70;;;;;;;22.71;42.14;99176.94;5068273;28;20029;-73
2022/07/19 00:43:00;;;;;;;1.45;0.50;;;;;;;22.68;42.15;99169.25;5073956;28;20047;-72
2022/07/19 00:45:26;;;;;;;4.35;0.65;;;;;;;22.73;42.33;99184.81;5088261;28;20020;-72
2022/07/19 00:47:52;;;;;;;2.00;0.52;;;;;;;22.73;42.12;99179.41;5088164;28;20031;-72
2022/07/19 00:50:19;;;;;;;0.93;0.52;;;;;;;22.73;42.10;99178.59;5074399;28;20340;-72
2022/07/19 00:52:48;;;;;;;3.38;0.43;;;;;;;22.72;42.12;99180.44;5072811;28;20028;-71
2022/07/19 00:55:17;;;;;;;1.48;0.70;;;;;;;22.69;42.09;99181.69;5070561;28;20218;-74
2022/07/19 00:57:43;;;;;;;1.67;0.65;;;;;;;22.69;42.26;99179.00;5087896;28;20036;-72
2022/07/19 01:00:10;;;;;;;4.20;0.70;;;;;;;22.64;42.36;99177.97;5088058;28;20129;-72
2022/07/19 01:02:37;;;;;;;1.80;0.70;;;;;;;22.63;41.96;99181.72;5087943;28;20028;-72
2022/07/19 01:05:03;;;;;;;2.15;0.98;;;;;;;22.62;42.29;99178.19;5087859;28;20024;-71
2022/07/19 01:07:28;;;;;;;3.00;0.60;;;;;;;22.63;42.36;99184.41;5087790;28;20033;-72
2022/07/19 01:09:54;;;;;;;1.52;0.57;;;;;;;22.61;42.26;99181.09;5087915;28;20062;-72
2022/07/19 01:12:22;;;;;;;2.08;0.90;;;;;;;22.58;42.24;99178.78;5087735;28;20036;-72
2022/07/19 01:14:48;;;;;;;1.08;0.60;;;;;;;22.54;42.23;99179.25;5087634;28;20047;-72
2022/07/19 01:17:14;;;;;;;2.58;1.10;;;;;;;22.45;42.28;99169.69;5087691;28;20063;-72
2022/07/19 01:19:42;;;;;;;1.23;0.57;;;;;;;22.45;42.40;99177.78;5087663;28;20221;-72
2022/07/19 01:22:07;;;;;;;1.52;0.60;;;;;;;22.47;42.18;99177.59;5087555;28;20096;-72
2022/07/19 01:24:32;;;;;;;1.85;0.55;;;;;;;22.51;42.19;99182.34;5087657;28;20024;-72
2022/07/19 01:26:58;;;;;;;1.27;0.68;;;;;;;22.53;42.14;99176.72;5087604;28;20043;-72
2022/07/19 01:29:24;;;;;;;3.58;0.70;;;;;;;22.50;42.31;99182.56;5087669;28;20111;-72
2022/07/19 01:31:50;;;;;;;1.00;0.60;;;;;;;22.50;42.22;99182.56;5087551;28;20028;-72
2022/07/19 01:34:15;;;;;;;2.05;0.80;;;;;;;22.51;42.04;99176.09;5087633;28;20035;-72
2022/07/19 01:36:41;;;;;;;0.88;0.50;;;;;;;22.52;42.23;99178.63;5087464;28;20045;-72
2022/07/19 01:39:06;;;;;;;3.65;0.80;;;;;;;22.54;42.02;99192.72;5087480;28;20095;-72
2022/07/19 01:41:32;;;;;;;4.00;0.80;;;;;;;22.52;42.05;99192.09;5087566;28;20035;-72
2022/07/19 01:43:57;;;;;;;1.30;0.90;;;;;;;22.51;42.10;99178.81;5087293;28;20048;-72
2022/07/19 01:46:23;;;;;;;3.20;0.93;;;;;;;22.47;42.25;99186.47;5087459;28;20044;-71
2022/07/19 01:48:48;;;;;;;1.83;0.57;;;;;;;22.42;42.20;99189.00;5087375;28;20040;-72
2022/07/19 01:51:13;;;;;;;1.17;0.60;;;;;;;22.41;42.30;99187.28;5087464;28;20058;-72
2022/07/19 01:53:39;;;;;;;2.63;0.77;;;;;;;22.39;42.29;99192.88;5087390;28;20024;-72
2022/07/19 01:56:06;;;;;;;2.63;0.70;;;;;;;22.41;42.35;99195.38;5087348;28;20179;-72
2022/07/19 01:58:31;;;;;;;1.33;0.60;;;;;;;22.43;42.32;99187.09;5087336;28;20032;-72
2022/07/19 02:00:57;;;;;;;2.63;0.43;;;;;;;22.46;42.15;99192.09;5087334;28;20034;-72
2022/07/19 02:03:22;;;;;;;3.13;0.80;;;;;;;22.46;42.12;99190.22;5087140;28;20187;-72
2022/07/19 02:05:48;;;;;;;2.13;0.65;;;;;;;22.47;42.18;99185.66;5087279;28;20032;-72
2022/07/19 02:08:13;;;;;;;1.42;0.70;;;;;;;22.44;42.09;99189.59;5087189;28;20052;-72
2022/07/19 02:10:39;;;;;;;1.42;0.50;;;;;;;22.47;42.06;99199.97;5087304;28;20050;-72
2022/07/19 02:13:05;;;;;;;4.18;0.63;;;;;;;22.48;42.06;99204.31;5087187;28;20035;-72
2022/07/19 02:15:30;;;;;;;2.33;0.70;;;;;;;22.46;41.94;99195.59;5086993;28;20032;-72
2022/07/19 02:17:56;;;;;;;1.33;0.60;;;;;;;22.47;41.79;99201.84;5089742;28;20079;-72
2022/07/19 02:20:22;;;;;;;5.05;0.90;;;;;;;22.47;42.20;99194.56;5091037;28;20089;-72
2022/07/19 02:22:47;;;;;;;1.40;0.45;;;;;;;22.49;42.07;99203.28;5090932;28;20245;-72
2022/07/19 02:25:13;;;;;;;2.97;0.50;;;;;;;22.50;42.09;99196.84;5090956;28;20024;-72
2022/07/19 02:27:39;;;;;;;0.90;0.50;;;;;;;22.53;41.87;99195.59;5090811;28;20033;-72
2022/07/19 02:30:05;;;;;;;1.95;0.52;;;;;;;22.53;41.95;99212.63;5090894;28;20043;-72
2022/07/19 02:32:30;;;;;;;1.00;0.63;;;;;;;22.53;41.97;99203.69;5073259;28;20024;-72
2022/07/19 02:34:56;;;;;;;0.95;0.50;;;;;;;22.52;41.86;99208.28;5090785;28;20027;-72
2022/07/19 02:37:21;;;;;;;1.85;0.47;;;;;;;22.52;41.97;99208.28;5090553;28;20129;-72
2022/07/19 02:39:47;;;;;;;1.63;0.70;;;;;;;22.54;41.88;99210.75;5090689;28;20086;-72
2022/07/19 02:42:12;;;;;;;1.65;0.60;;;;;;;22.54;41.82;99205.34;5090474;28;20047;-72
2022/07/19 02:44:38;;;;;;;3.22;0.60;;;;;;;22.53;41.90;99212.63;5090594;28;20078;-72
2022/07/19 02:47:03;;;;;;;3.85;0.55;;;;;;;22.54;41.78;99211.59;5090513;28;20240;-72
2022/07/19 02:49:29;;;;;;;1.17;0.40;;;;;;;22.54;41.81;99216.13;5090515;28;20224;-72
2022/07/19 02:51:54;;;;;;;1.80;0.77;;;;;;;22.53;41.74;99215.31;5090439;28;20032;-72
2022/07/19 02:54:20;;;;;;;1.85;0.45;;;;;;;22.51;41.76;99213.84;5090280;28;20091;-72
2022/07/19 02:56:45;;;;;;;0.65;0.30;;;;;;;22.48;41.94;99203.50;5090251;28;20024;-72
2022/07/19 02:59:10;;;;;;;1.73;0.50;;;;;;;22.52;41.94;99216.34;5090346;28;20028;-72
2022/07/19 03:01:36;;;;;;;2.25;0.82;;;;;;;22.51;41.85;99217.38;5090223;28;20189;-72
2022/07/19 03:04:02;;;;;;;0.80;0.40;;;;;;;22.51;41.77;99213.84;5090154;28;20020;-72
2022/07/19 03:06:27;;;;;;;0.93;0.40;;;;;;;22.50;41.70;99218.44;5090261;28;20024;-72
2022/07/19 03:08:53;;;;;;;0.82;0.40;;;;;;;22.52;41.80;99219.06;5090151;28;20032;-72
2022/07/19 03:11:20;;;;;;;2.50;0.57;;;;;;;22.49;41.79;99216.75;5090147;28;20032;-72
2022/07/19 03:13:45;;;;;;;1.30;0.47;;;;;;;22.53;41.71;99204.53;5089785;28;20157;-73
2022/07/19 03:16:10;;;;;;;0.77;0.32;;;;;;;22.55;41.77;99221.34;5072315;28;20030;-72
2022/07/19 03:18:36;;;;;;;2.92;0.60;;;;;;;22.58;41.92;99232.72;5089901;28;20092;-72
2022/07/19 03:21:02;;;;;;;2.30;0.40;;;;;;;22.54;41.53;99210.75;5089933;28;20283;-73
2022/07/19 03:23:30;;;;;;;2.33;0.47;;;;;;;22.63;41.85;99212.22;5089868;28;20017;-72
2022/07/19 03:25:56;;;;;;;2.90;0.95;;;;;;;22.70;41.47;99213.03;5089879;28;20031;-73
2022/07/19 03:28:21;;;;;;;1.35;0.47;;;;;;;22.78;41.58;99221.97;5070878;28;20230;-72
2022/07/19 03:30:47;;;;;;;4.15;0.70;;;;;;;22.83;41.44;99220.28;5089756;28;20024;-72
2022/07/19 03:33:15;;;;;;;2.40;0.63;;;;;;;22.86;41.49;99225.28;5089630;28;20021;-72
2022/07/19 03:35:43;;;;;;;0.95;0.60;;;;;;;22.85;41.34;99218.22;5089590;28;20063;-72
2022/07/19 03:38:09;;;;;;;1.30;0.75;;;;;;;22.88;41.28;99226.91;5089463;28;20033;-72
2022/07/19 03:40:35;;;;;;;0.77;0.55;;;;;;;22.89;41.32;99223.16;5089610;28;20024;-72
2022/07/19 03:43:00;;;;;;;1.27;0.60;;;;;;;22.92;41.33;99222.75;5089249;28;20108;-72
2022/07/19 03:45:26;;;;;;;1.17;0.60;;;;;;;22.94;41.11;99234.16;5089471;28;20281;-73
2022/07/19 03:47:51;;;;;;;4.85;0.63;;;;;;;22.94;41.10;99223.38;5089289;28;20017;-72
2022/07/19 03:50:17;;;;;;;0.90;0.63;;;;;;;22.94;40.94;99232.28;5089359;28;20217;-72
2022/07/19 03:52:42;;;;;;;1.67;0.40;;;;;;;22.94;41.18;99228.78;5089129;28;20027;-72
2022/07/19 03:55:08;;;;;;;1.80;0.68;;;;;;;22.94;40.98;99226.06;5089359;28;20042;-72
2022/07/19 03:57:34;;;;;;;1.95;0.55;;;;;;;22.98;41.25;99230.03;5088963;28;20020;-72
2022/07/19 03:59:59;;;;;;;2.75;0.73;;;;;;;22.98;41.16;99227.31;5089113;28;20025;-73
2022/07/19 04:02:25;;;;;;;2.10;0.80;;;;;;;23.00;41.08;99230.66;5089074;28;20035;-73
2022/07/19 04:04:50;;;;;;;1.77;0.50;;;;;;;23.03;41.18;99230.19;5089066;28;20024;-72
2022/07/19 04:07:16;;;;;;;3.25;0.70;;;;;;;23.07;40.91;99236.03;5088954;28;20020;-72
2022/07/19 04:09:42;;;;;;;1.45;0.50;;;;;;;23.07;40.71;99234.16;5088975;28;20028;-72
2022/07/19 04:12:07;;;;;;;1.10;0.60;;;;;;;23.07;40.86;99236.84;5088854;28;20231;-72
2022/07/19 04:14:33;;;;;;;3.78;0.82;;;;;;;23.08;40.80;99240.41;5088758;28;20020;-72
2022/07/19 04:16:59;;;;;;;2.33;0.57;;;;;;;23.11;40.96;99235.41;5088717;28;20039;-72
2022/07/19 04:19:25;;;;;;;3.58;0.52;;;;;;;23.11;41.00;99232.69;5088834;28;20074;-72
2022/07/19 04:21:50;;;;;;;2.63;0.40;;;;;;;23.09;40.71;99226.69;5088605;28;20021;-72
2022/07/19 04:24:15;;;;;;;1.83;0.60;;;;;;;23.06;40.86;99234.38;5088695;28;20035;-72
2022/07/19 04:26:41;;;;;;;2.17;0.50;;;;;;;23.04;41.19;99231.88;5088513;28;20065;-72
2022/07/19 04:29:06;;;;;;;1.20;0.40;;;;;;;22.99;41.00;99224.41;5088590;28;20020;-72
2022/07/19 04:31:32;;;;;;;2.63;0.40;;;;;;;23.02;40.82;99225.84;5088563;28;20024;-72
2022/07/19 04:33:57;;;;;;;1.52;0.50;;;;;;;23.09;40.61;99233.94;5088461;28;20067;-72
2022/07/19 04:36:23;;;;;;;5.15;0.60;;;;;;;23.13;40.72;99232.47;5088284;28;20024;-72
2022/07/19 04:38:48;;;;;;;1.70;0.50;;;;;;;23.17;40.55;99237.22;5088163;28;20088;-72
2022/07/19 04:41:14;;;;;;;1.33;0.55;;;;;;;23.25;40.66;99238.09;5087896;28;20025;-72
2022/07/19 04:43:39;;;;;;;3.05;0.40;;;;;;;23.45;40.36;99233.44;5088058;28;20091;-72
2022/07/19 04:46:05;;;;;;;3.13;0.50;;;;;;;23.63;40.06;99234.63;5088261;28;20032;-72
2022/07/19 04:48:30;;;;;;;2.50;0.70;;;;;;;23.84;40.03;99232.69;5087990;28;20024;-72
2022/07/19 04:50:56;;;;;;;0.77;0.50;;;;;;;24.04;39.37;99238.00;5088209;28;20073;-72
2022/07/19 04:53:21;;;;;;;3.42;0.40;;;;;;;24.20;39.23;99231.25;5087942;28;20024;-72
2022/07/19 04:55:47;;;;;;;1.50;0.52;;;;;;;24.35;39.16;99230.97;5088029;28;20028;-72
2022/07/19 04:58:12;;;;;;;1.13;0.43;;;;;;;24.49;38.66;99224.41;5087931;28;20055;-72
2022/07/19 05:00:37;;;;;;;1.08;0.43;;;;;;;24.61;38.74;99229.94;5087990;28;20101;-72
2022/07/19 05:03:05;;;;;;;1.58;0.57;;;;;;;24.73;38.31;99224.66;5087682;28;20032;-72
2022/07/19 05:05:30;;;;;;;1.23;0.50;;;;;;;24.83;38.12;99222.28;5087928;28;20218;-72
2022/07/19 05:07:56;;;;;;;2.10;0.40;;;;;;;24.92;38.06;99224.69;5087881;28;20106;-72
2022/07/19 05:10:21;;;;;;;0.65;0.30;;;;;;;25.03;37.86;99221.25;5087934;28;20190;-72
2022/07/19 05:12:47;;;;;;;4.18;0.85;;;;;;;25.12;37.69;99219.06;5087846;28;20028;-72
2022/07/19 05:15:12;;;;;;;1.35;0.40;;;;;;;25.21;37.87;99223.16;5087635;28;20016;-72
2022/07/19 05:17:38;;;;;;;0.85;0.40;;;;;;;25.26;37.48;99217.88;5087671;28;20057;-72
2022/07/19 05:20:06;;;;;;;1.70;0.55;;;;;;;25.35;37.28;99218.41;5087819;28;20029;-73
2022/07/19 05:22:31;;;;;;;2.60;0.47;;;;;;;25.43;37.02;99229.00;5087704;28;20095;-72
2022/07/19 05:24:57;;;;;;;0.88;0.35;;;;;;;25.35;37.40;99217.59;5087772;28;20081;-72
2022/07/19 05:27:23;;;;;;;2.30;0.40;;;;;;;25.41;36.98;99219.38;5087669;28;20100;-72
2022/07/19 05:29:48;;;;;;;1.98;0.47;;;;;;;25.43;37.10;99225.44;5087682;28;20036;-72
2022/07/19 05:32:14;;;;;;;2.05;0.95;;;;;;;25.55;36.61;99225.50;5087551;28;20021;-72
2022/07/19 05:34:39;;;;;;;2.70;0.50;;;;;;;25.64;36.60;99212.50;5087587;28;20034;-72
2022/07/19 05:37:05;;;;;;;1.33;0.50;;;;;;;25.62;36.67;99217.31;5087434;28;20024;-72
2022/07/19 05:39:30;;;;;;;2.45;0.60;;;;;;;25.25;37.22;99224.34;5087484;28;20033;-73
2022/07/19 05:41:56;;;;;;;4.03;0.43;;;;;;;25.40;36.88;99234.81;5087349;28;20233;-71
2022/07/19 05:44:22;;;;;;;1.02;0.45;;;;;;;25.56;36.65;99224.47;5087506;28;20048;-71
2022/07/19 05:46:47;;;;;;;0.93;0.35;;;;;;;25.72;36.54;99225.72;5087708;28;20013;-71
2022/07/19 05:49:14;;;;;;;0.77;0.40;;;;;;;25.72;36.44;99223.84;5087422;28;20055;-71
2022/07/19 05:51:39;;;;;;;0.57;0.50;;;;;;;25.68;36.60;99222.63;5088017;28;20172;-72
2022/07/19 05:54:06;;;;;;;0.98;0.30;;;;;;;25.47;36.93;99220.38;5091492;28;20028;-72
2022/07/19 05:56:32;;;;;;;2.08;0.55;;;;;;;25.57;36.68;99221.50;5091457;28;20024;-73
2022/07/19 05:58:57;;;;;;;2.38;0.45;;;;;;;25.56;36.50;99219.84;5091470;28;20028;-73
2022/07/19 06:01:24;;;;;;;2.63;0.60;;;;;;;25.64;36.33;99217.91;5091512;28;20028;-72
2022/07/19 06:03:55;;;;;;;1.02;0.60;;;;;;;25.57;36.53;99220.69;5091257;28;20051;-73
2022/07/19 06:06:22;;;;;;;0.93;0.40;;;;;;;25.52;36.52;99220.53;5091349;28;20059;-72
2022/07/19 06:08:48;;;;;;;1.88;0.93;;;;;;;25.64;36.43;99215.19;5091267;28;20024;-73
2022/07/19 06:11:15;;;;;;;2.28;0.70;;;;;;;25.59;36.49;99216.69;5091300;28;20043;-72
2022/07/19 06:13:41;;;;;;;3.40;0.80;;;;;;;25.59;36.56;99214.00;5091146;28;20036;-72
2022/07/19 06:16:07;;;;;;;1.95;0.75;;;;;;;25.32;36.77;99226.16;5090993;28;20039;-72
2022/07/19 06:18:34;;;;;;;2.58;0.60;;;;;;;25.39;36.64;99225.03;5091035;28;20028;-72
2022/07/19 06:21:04;;;;;;;0.60;0.30;;;;;;;25.39;36.49;99219.63;5091055;28;20092;-72
2022/07/19 06:23:30;;;;;;;2.03;0.50;;;;;;;25.29;36.74;99222.03;5090903;28;20024;-72
2022/07/19 06:25:56;;;;;;;0.88;0.40;;;;;;;25.15;36.77;99224.03;5090959;28;20021;-73
2022/07/19 06:28:22;;;;;;;0.60;0.40;;;;;;;24.95;37.08;99219.66;5090782;28;20020;-72
2022/07/19 06:30:47;;;;;;;1.40;0.30;;;;;;;24.78;37.55;99223.97;5090871;28;20032;-72
2022/07/19 06:33:13;;;;;;;0.63;0.35;;;;;;;24.68;37.53;99219.88;5090783;28;20040;-72
2022/07/19 06:35:40;;;;;;;0.50;0.50;;;;;;;24.57;37.69;99217.06;5090726;28;20143;-72
2022/07/19 06:38:06;;;;;;;2.25;0.40;;;;;;;24.51;37.74;99213.34;5090714;28;20091;-72
2022/07/19 06:40:31;;;;;;;0.75;0.38;;;;;;;24.46;37.48;99230.25;5090606;28;20035;-72
2022/07/19 06:42:57;;;;;;;0.80;0.35;;;;;;;24.44;37.77;99223.41;5090313;28;20126;-72
2022/07/19 06:45:23;;;;;;;1.95;0.50;;;;;;;24.42;37.33;99236.31;5090564;28;20035;-72
2022/07/19 06:47:50;;;;;;;0.80;0.32;;;;;;;24.41;37.51;99223.84;5090498;28;20028;-72
2022/07/19 06:50:16;;;;;;;0.90;0.50;;;;;;;24.38;37.73;99231.34;5077034;28;20091;-73
2022/07/19 06:52:41;;;;;;;1.05;0.40;;;;;;;24.37;37.61;99235.09;5070680;28;20025;-72
2022/07/19 06:55:07;;;;;;;1.70;0.47;;;;;;;24.32;37.75;99236.81;5090439;28;20241;-72
2022/07/19 06:57:33;;;;;;;1.73;0.80;;;;;;;24.25;37.82;99230.63;5090071;28;20074;-72
2022/07/19 06:59:58;;;;;;;2.90;0.75;;;;;;;24.22;37.61;99230.00;5090179;28;20289;-72
2022/07/19 07:02:24;;;;;;;1.50;0.32;;;;;;;24.21;37.93;99236.47;5089800;28;20040;-72
2022/07/19 07:04:49;;;;;;;3.45;0.38;;;;;;;24.16;37.68;99222.75;5090206;28;20047;-72
2022/07/19 07:07:15;;;;;;;1.63;0.40;;;;;;;24.17;37.66;99229.81;5090052;28;20078;-72
2022/07/19 07:09:41;;;;;;;0.68;0.40;;;;;;;24.17;38.02;99226.31;5090142;28;20089;-71
2022/07/19 07:12:08;;;;;;;1.38;0.47;;;;;;;24.17;37.54;99231.72;5090101;28;20024;-72
2022/07/19 07:14:34;;;;;;;1.13;0.40;;;;;;;24.15;37.75;99229.22;5089896;28;20083;-72
2022/07/19 07:17:00;;;;;;;0.50;0.30;;;;;;;24.15;37.80;99223.81;5089872;28;20039;-71
2022/07/19 07:19:25;;;;;;;1.17;0.30;;;;;;;24.15;37.76;99228.41;5089997;28;20229;-71
2022/07/19 07:21:51;;;;;;;1.50;0.40;;;;;;;24.14;37.34;99226.75;5089886;28;20046;-71
2022/07/19 07:24:16;;;;;;;1.75;0.40;;;;;;;24.13;37.47;99234.00;5089908;28;20032;-72
2022/07/19 07:26:42;;;;;;;2.85;0.50;;;;;;;24.12;37.52;99231.53;5089864;28;20138;-72
2022/07/19 07:29:07;;;;;;;1.17;0.50;;;;;;;24.10;37.90;99231.75;5089827;28;20092;-72
2022/07/19 07:31:33;;;;;;;1.88;0.50;;;;;;;24.10;37.84;99233.63;5089784;28;20020;-72
2022/07/19 07:33:58;;;;;;;0.82;0.70;;;;;;;24.07;37.86;99232.19;5089590;28;20082;-72
2022/07/19 07:36:24;;;;;;;0.88;0.60;;;;;;;24.07;37.59;99233.00;5089644;28;20188;-72
2022/07/19 07:38:49;;;;;;;2.10;0.40;;;;;;;24.06;37.59;99227.81;5089452;28;20020;-72
2022/07/19 07:41:15;;;;;;;1.35;0.50;;;;;;;24.06;37.71;99225.13;5089549;28;20040;-72
2022/07/19 07:43:40;;;;;;;0.57;0.32;;;;;;;24.05;37.54;99232.38;5089376;28;20066;-71
2022/07/19 07:46:06;;;;;;;2.75;0.50;;;;;;;24.02;37.58;99240.94;5089499;28;20043;-71
2022/07/19 07:48:32;;;;;;;1.77;0.40;;;;;;;24.03;37.78;99234.50;5089294;28;20020;-71
2022/07/19 07:50:57;;;;;;;1.52;0.60;;;;;;;24.03;37.73;99222.84;5089402;28;20119;-71
2022/07/19 07:53:23;;;;;;;1.35;0.20;;;;;;;24.03;37.45;99234.50;5089194;28;20024;-71
2022/07/19 07:55:48;;;;;;;1.92;0.45;;;;;;;24.03;37.43;99239.91;5089236;28;20027;-71
2022/07/19 07:58:14;;;;;;;0.77;0.40;;;;;;;24.01;37.86;99233.88;5089141;28;20020;-72
2022/07/19 08:00:40;;;;;;;1.42;0.32;;;;;;;23.99;37.62;99240.53;5089194;28;20114;-72
2022/07/19 08:03:06;;;;;;;2.22;0.60;;;;;;;24.01;37.27;99243.84;5088977;28;20020;-72
2022/07/19 08:05:32;;;;;;;1.67;0.60;;;;;;;24.00;37.15;99236.78;5089157;28;20021;-72
2022/07/19 08:07:59;;;;;;;0.98;0.50;;;;;;;23.98;36.94;99236.16;5088993;28;20047;-72
2022/07/19 08:10:28;;;;;;;0.88;0.40;;;;;;;24.00;37.39;99239.47;5088981;28;20092;-72
2022/07/19 08:12:53;;;;;;;4.00;0.50;;;;;;;23.98;37.18;99234.31;5088936;28;20078;-72
2022/07/19 08:15:20;;;;;;;1.13;0.43;;;;;;;23.98;36.85;99236.16;5087995;28;20012;-72
2022/07/19 08:17:45;;;;;;;2.38;0.50;;;;;;;23.97;37.15;99239.94;5088715;28;20031;-72
2022/07/19 08:20:11;;;;;;;1.02;0.50;;;;;;;23.96;36.73;99239.09;5088821;28;20024;-72
2022/07/19 08:22:37;;;;;;;1.95;0.60;;;;;;;23.97;37.09;99245.34;5088724;28;20028;-72
2022/07/19 08:25:03;;;;;;;5.43;0.75;;;;;;;23.99;36.97;99244.06;5088768;28;20035;-72
2022/07/19 08:27:29;;;;;;;5.10;0.80;;;;;;;24.02;36.64;99251.75;5088585;28;20024;-72
2022/07/19 08:29:54;;;;;;;1.05;0.30;;;;;;;24.04;36.56;99248.81;5088589;28;20024;-72
2022/07/19 08:32:20;;;;;;;7.53;0.63;;;;;;;24.02;36.14;99249.06;5088499;28;20024;-72
2022/07/19 08:34:45;;;;;;;2.10;0.40;;;;;;;24.03;36.18;99249.88;5088533;28;20081;-71
2022/07/19 08:37:11;;;;;;;1.73;0.60;;;;;;;24.01;36.17;99238.44;5088357;28;20035;-72
2022/07/19 08:39:36;;;;;;;1.00;0.60;;;;;;;23.99;36.07;99240.53;5088475;28;20026;-71
2022/07/19 08:42:02;;;;;;;1.17;0.50;;;;;;;23.96;36.21;99235.56;5088214;28;20099;-72
2022/07/19 08:44:29;;;;;;;3.00;0.50;;;;;;;23.98;36.09;99234.31;5088337;28;20029;-72
2022/07/19 08:46:55;;;;;;;0.30;0.30;;;;;;;23.98;36.11;99242.41;5088256;28;20024;-72
2022/07/19 08:49:21;;;;;;;0.60;0.30;;;;;;;23.97;36.14;99235.34;5088255;28;20094;-71
2022/07/19 08:51:48;;;;;;;0.93;0.40;;;;;;;23.96;36.45;99238.25;5088157;28;20024;-71
2022/07/19 08:54:14;;;;;;;1.10;0.40;;;;;;;23.95;36.21;99237.41;5088076;28;20074;-71
2022/07/19 08:59:24;;;;;;;3.65;0.50;;;;;;;23.92;36.23;99232.44;5088080;28;20020;-71
2022/07/19 09:01:50;;;;;;;2.70;0.60;;;;;;;23.95;36.14;99233.88;5087958;28;20020;-72
2022/07/19 09:04:19;;;;;;;2.75;0.43;;;;;;;23.96;36.11;99232.84;5087896;28;20032;-72
2022/07/19 09:06:49;;;;;;;1.50;0.30;;;;;;;23.96;35.87;99231.00;5087918;28;20229;-72
2022/07/19 09:09:18;;;;;;;1.75;0.43;;;;;;;23.96;36.20;99230.16;5087958;28;20031;-72
2022/07/19 09:11:53;;;;;;;3.05;0.63;;;;;;;23.95;35.65;99225.78;5087873;28;20086;-72
2022/07/19 09:14:27;;;;;;;2.60;0.68;;;;;;;23.97;35.28;99219.13;5087718;28;20020;-72
2022/07/19 09:17:01;;;;;;;4.18;0.32;;;;;;;23.99;35.17;99227.88;5087712;28;20039;-72
2022/07/19 09:19:29;;;;;;;0.75;0.40;;;;;;;23.97;35.35;99211.03;5087802;28;20020;-73
2022/07/19 09:22:06;;;;;;;0.38;0.35;;;;;;;23.99;35.53;99221.63;5087658;28;20028;-72
2022/07/19 09:24:34;;;;;;;3.15;0.45;;;;;;;23.97;35.39;99226.44;5087618;28;20276;-71
2022/07/19 09:27:06;;;;;;;2.58;0.47;;;;;;;23.95;35.50;99213.09;5087566;28;20016;-72
2022/07/19 09:29:33;;;;;;;3.45;0.57;;;;;;;23.94;35.44;99222.22;5087631;28;20032;-72
2022/07/19 09:32:19;;;;;;;1.58;0.50;;;;;;;23.96;35.45;99222.88;5087578;28;20028;-72
2022/07/19 09:35:01;;;;;;;0.73;0.50;;;;;;;23.99;35.53;99210.81;5087655;28;20028;-71
2022/07/19 09:37:35;;;;;;;1.10;0.30;;;;;;;23.97;35.26;99224.53;5087510;28;20138;-72
2022/07/19 09:40:07;;;;;;;0.85;0.38;;;;;;;23.98;35.68;99220.78;5087421;28;20032;-72
2022/07/19 09:42:37;;;;;;;1.30;0.40;;;;;;;23.99;35.47;99217.06;5069767;28;20115;-72
2022/07/19 09:45:11;;;;;;;1.30;0.30;;;;;;;24.01;35.38;99220.38;5087522;28;20094;-72
2022/07/19 09:47:42;;;;;;;1.92;0.73;;;;;;;23.99;35.25;99219.75;5087486;28;20036;-73
2022/07/19 09:50:16;;;;;;;0.77;0.32;;;;;;;24.01;35.32;99220.38;5075085;28;20125;-71
2022/07/19 09:52:44;;;;;;;0.77;0.40;;;;;;;24.02;35.42;99224.72;5069717;28;20020;-72
2022/07/19 09:55:11;;;;;;;2.63;0.50;;;;;;;24.01;35.44;99225.78;5087451;28;20016;-72
2022/07/19 09:57:42;;;;;;;0.20;0.20;;;;;;;24.04;35.34;99219.09;5087299;28;20032;-72
2022/07/19 10:00:10;;;;;;;1.35;0.47;;;;;;;24.03;35.76;99221.00;5087369;28;20307;-72
2022/07/19 10:02:38;;;;;;;1.45;0.40;;;;;;;24.08;35.52;99218.44;5087312;28;20020;-73
2022/07/19 10:05:05;;;;;;;3.00;0.70;;;;;;;24.11;35.45;99221.75;5087253;28;20193;-73
2022/07/19 10:07:34;;;;;;;1.92;0.35;;;;;;;24.10;35.58;99215.53;5087142;28;20085;-73
2022/07/19 10:10:19;;;;;;;0.45;0.30;;;;;;;24.09;35.98;99211.19;5087294;28;20020;-72
2022/07/19 10:12:47;;;;;;;3.72;0.85;;;;;;;24.08;35.68;99217.63;5087268;28;20200;-73
2022/07/19 10:15:15;;;;;;;1.83;1.13;;;;;;;24.08;35.86;99212.22;5087073;28;20029;-72
2022/07/19 10:17:57;;;;;;;10.20;2.17;;;;;;;24.08;36.13;99226.53;5087028;28;20020;-73
2022/07/19 10:20:25;;;;;;;14.57;2.95;;;;;;;24.11;36.52;99208.25;5087126;28;20016;-73
2022/07/19 10:22:51;;;;;;;25.20;5.68;;;;;;;24.12;36.62;99221.53;5087068;28;20017;-72
2022/07/19 10:25:17;;;;;;;31.90;9.63;;;;;;;24.11;37.22;99222.59;5087112;28;20078;-73
2022/07/19 10:27:46;;;;;;;31.10;7.90;;;;;;;24.08;37.11;99210.34;5086997;28;20028;-72
2022/07/19 10:30:12;;;;;;;34.72;10.30;;;;;;;24.07;37.38;99210.56;5087071;28;20227;-72
2022/07/19 10:32:39;;;;;;;30.88;9.85;;;;;;;24.06;37.43;99207.00;5087018;28;20043;-73
2022/07/19 10:35:29;;;;;;;47.63;12.93;;;;;;;24.05;37.67;99213.47;5087102;28;20024;-72
2022/07/19 10:38:01;;;;;;;43.42;12.60;;;;;;;24.07;37.97;99218.66;5087761;28;20230;-72
2022/07/19 10:40:46;;;;;;;29.48;7.85;;;;;;;24.09;38.24;99219.28;5090715;28;20125;-74
2022/07/19 10:43:15;;;;;;;32.22;8.00;;;;;;;24.10;38.08;99207.44;5090538;28;20245;-72
2022/07/19 10:45:56;;;;;;;28.02;7.82;;;;;;;24.12;38.10;99209.91;5090656;28;20028;-72
2022/07/19 10:48:34;;;;;;;23.42;7.68;;;;;;;24.12;38.15;99209.91;5090483;28;20036;-72
2022/07/19 10:51:00;;;;;;;23.17;6.68;;;;;;;24.12;38.29;99212.59;5090419;28;20020;-72
2022/07/19 10:53:38;;;;;;;23.63;8.82;;;;;;;24.11;38.63;99217.19;5090672;28;20225;-72
2022/07/19 10:56:22;;;;;;;16.48;5.03;;;;;;;24.13;38.41;99211.56;5090377;28;20032;-72
2022/07/19 10:58:48;;;;;;;13.95;4.63;;;;;;;24.16;38.25;99209.25;5090264;28;20051;-72
2022/07/19 11:01:18;;;;;;;13.90;4.72;;;;;;;24.18;38.23;99209.03;5090353;28;20025;-72
2022/07/19 11:03:46;;;;;;;15.95;5.03;;;;;;;24.14;38.21;99197.00;5090166;28;20134;-72
2022/07/19 11:06:25;;;;;;;13.82;4.47;;;;;;;24.14;38.32;99194.31;5090226;28;20016;-72
2022/07/19 11:08:56;;;;;;;15.48;4.75;;;;;;;24.09;38.15;99194.97;5090183;28;20091;-72
2022/07/19 11:11:23;;;;;;;9.70;3.63;;;;;;;24.07;38.08;99189.75;5090203;28;20024;-72
2022/07/19 11:13:57;;;;;;;12.73;3.70;;;;;;;24.08;37.98;99204.94;5089843;28;20030;-71
2022/07/19 11:16:25;;;;;;;8.75;3.35;;;;;;;24.07;38.03;99187.06;5090026;28;20101;-72
2022/07/19 11:18:50;;;;;;;9.73;3.42;;;;;;;24.07;38.02;99187.06;5089973;28;20040;-71
2022/07/19 11:21:16;;;;;;;6.10;2.30;;;;;;;24.04;38.30;99182.06;5090014;28;20233;-72
2022/07/19 11:23:43;;;;;;;6.45;2.42;;;;;;;24.02;37.99;99184.19;5089905;28;20024;-71
2022/07/19 11:26:08;;;;;;;8.15;1.63;;;;;;;24.04;38.03;99190.19;5089897;28;20024;-71
2022/07/19 11:28:34;;;;;;;7.53;2.60;;;;;;;24.02;37.79;99184.19;5089781;28;20050;-71
2022/07/19 11:30:59;;;;;;;3.38;1.52;;;;;;;24.04;37.61;99190.19;5089792;28;20110;-71
2022/07/19 11:33:25;;;;;;;7.03;1.80;;;;;;;24.03;37.87;99185.84;5089608;28;20077;-71